Virtual Norwegian is not affiliated with Norwegian Air Shuttle in any way.
If you are looking for the real "Norwegian", or you wish to book Norwegian flights, please visit Norwegian.com


We use cookies to ensure you get the best experience on our website.   ACCEPT

ENZV - SVG - Stavanger (Sola)

General Info Alternate Airport
ICAO: ENZV Elevation: 29 ft ICAO: ENHD
IATA: SVG Country: Norway IATA: HAU
City: Stavanger Charts: Log in to view charts City: Haugesund
Name: Sola Hub: Yes Name Karmoy
General Info
ICAO: ENZV
IATA: SVG
City: Stavanger
Name: Sola
Elevation: 29 ft
Country: Norway
Charts: Log in to view charts
Hub: Yes
 
Alternate Airport
ICAO: ENHD
IATA: HAU
City: Haugesund
Name: Karmoy

Weather
192020Z 20008KT 9999 FEW020CB SCT022 BKN050 14/10 Q1003
Weather
192020Z 20008KT 9999 FEW020CB SCT022 BKN050 14/10 Q1003

Runway Info
11
Length ILS/LOC Course
2449 m 109.50 106
18
Length ILS/LOC Course
2556 m 110.30 179
29
Length ILS/LOC Heading
2449 m N/A 286
36
Length ILS/LOC Course
2556 m 111.35 359

NOTAMs
NOTAMs currently unavailable.
NOTAMs
NOTAMs currently unavailable

Route map
Airport
Airport (hub)